Time;durP1;ratioP1;P1;durP2;ratioP2;P2;SDS_P1;SDS_P2;PMS_P1;PMS_P2;Temp;Humidity;BMP_temperature;BMP_pressure;BME280_temperature;BME280_humidity;BME280_pressure;Samples;Min_cycle;Max_cycle;Signal;HPM_P1;HPM_P2
2023/04/11 00:00:12;;;;;;;35.00;5.88;;;9.70;99.90;;;;;;5031175;28;20061;-80
2023/04/11 00:03:00;;;;;;;35.63;6.28;;;9.60;99.90;;;;;;5014058;28;20148;-79
2023/04/11 00:05:46;;;;;;;33.83;6.30;;;9.50;99.90;;;;;;5029378;28;20050;-80
2023/04/11 00:08:32;;;;;;;37.05;5.60;;;9.50;99.90;;;;;;5029019;28;20091;-81
2023/04/11 00:11:18;;;;;;;29.98;6.57;;;9.40;99.90;;;;;;5028766;28;20053;-80
2023/04/11 00:14:06;;;;;;;23.50;5.35;;;9.30;99.90;;;;;;5013468;28;20497;-80
2023/04/11 00:16:52;;;;;;;20.73;3.10;;;9.20;99.90;;;;;;5013266;28;20053;-80
2023/04/11 00:19:38;;;;;;;20.63;3.30;;;9.10;99.90;;;;;;5014812;28;20576;-80
2023/04/11 00:22:26;;;;;;;14.95;1.92;;;9.00;99.90;;;;;;5029363;28;20057;-80
2023/04/11 00:25:12;;;;;;;14.52;2.60;;;9.00;99.90;;;;;;5020844;28;20064;-82
2023/04/11 00:27:58;;;;;;;16.88;3.47;;;8.90;99.90;;;;;;5047317;28;20049;-80
2023/04/11 00:30:44;;;;;;;15.50;2.50;;;8.90;99.90;;;;;;5053272;28;20126;-84
2023/04/11 00:33:33;;;;;;;9.82;2.22;;;8.80;99.90;;;;;;5053781;28;20048;-80
2023/04/11 00:36:19;;;;;;;10.07;1.85;;;8.80;99.90;;;;;;5035434;28;20060;-79
2023/04/11 00:39:05;;;;;;;7.95;1.58;;;8.70;99.90;;;;;;5053304;28;20091;-79
2023/04/11 00:41:51;;;;;;;7.43;1.27;;;8.60;99.90;;;;;;5038400;28;20080;-79
2023/04/11 00:44:41;;;;;;;6.32;1.02;;;8.60;99.90;;;;;;5038989;28;20110;-80
2023/04/11 00:47:27;;;;;;;13.18;1.30;;;8.60;99.90;;;;;;5052635;28;20045;-80
2023/04/11 00:50:14;;;;;;;11.52;1.63;;;8.60;99.90;;;;;;5052821;28;20112;-80
2023/04/11 00:53:00;;;;;;;14.85;1.90;;;8.50;99.90;;;;;;5058531;28;20099;-79
2023/04/11 00:55:47;;;;;;;11.18;1.63;;;8.50;99.90;;;;;;5034609;28;20563;-79
2023/04/11 00:58:36;;;;;;;13.43;2.05;;;8.50;99.90;;;;;;5037685;28;20060;-80
2023/04/11 01:01:22;;;;;;;12.98;1.60;;;8.50;99.90;;;;;;5052575;28;20041;-81
2023/04/11 01:04:09;;;;;;;14.02;2.22;;;8.50;99.90;;;;;;5054476;28;20144;-80
2023/04/11 01:07:04;;;;;;;12.75;2.10;;;8.40;99.90;;;;;;5054965;28;20049;-82
2023/04/11 01:09:51;;;;;;;;;;;8.50;99.90;;;;;;5053362;28;20056;-80
2023/04/11 01:12:38;;;;;;;8.68;1.50;;;8.40;99.90;;;;;;5072099;28;19921;-81
2023/04/11 01:15:24;;;;;;;10.05;1.45;;;8.40;99.90;;;;;;5071316;28;20048;-81
2023/04/11 01:18:11;;;;;;;13.38;1.95;;;8.40;99.90;;;;;;5078231;28;20071;-81
2023/04/11 01:20:59;;;;;;;7.68;1.73;;;8.30;99.90;;;;;;5075546;28;20048;-81
2023/04/11 01:23:47;;;;;;;8.85;1.20;;;8.30;99.90;;;;;;5072051;28;20052;-78
2023/04/11 01:26:34;;;;;;;8.07;1.30;;;8.20;99.90;;;;;;5071981;28;20051;-82
2023/04/11 01:29:20;;;;;;;4.32;1.17;;;8.20;99.90;;;;;;5070693;28;20061;-78
2023/04/11 01:32:06;;;;;;;6.97;1.30;;;8.20;99.90;;;;;;5071818;28;20049;-80
2023/04/11 01:34:55;;;;;;;8.68;1.80;;;8.20;99.90;;;;;;5071619;28;20048;-80
2023/04/11 01:37:41;;;;;;;6.80;1.20;;;8.10;99.90;;;;;;5052165;28;20105;-80
2023/04/11 01:40:28;;;;;;;10.07;1.45;;;8.10;99.90;;;;;;5040942;28;20469;-78
2023/04/11 01:43:14;;;;;;;10.45;2.08;;;8.00;99.90;;;;;;5072012;28;20548;-81
2023/04/11 01:46:01;;;;;;;11.02;1.77;;;8.00;99.90;;;;;;5052611;28;20055;-79
2023/04/11 01:48:49;;;;;;;6.38;1.20;;;8.00;99.90;;;;;;5071472;28;20412;-80
2023/04/11 01:51:35;;;;;;;10.38;1.45;;;8.00;99.90;;;;;;5071681;28;20127;-80
2023/04/11 01:54:21;;;;;;;11.02;1.55;;;8.00;99.90;;;;;;5053317;28;20095;-80
2023/04/11 01:57:07;;;;;;;13.13;2.10;;;8.00;99.90;;;;;;5071228;28;20049;-81
2023/04/11 01:59:53;;;;;;;8.68;1.90;;;8.00;99.90;;;;;;5070851;28;20056;-79
2023/04/11 02:02:39;;;;;;;6.95;0.90;;;8.00;99.90;;;;;;5073949;28;20458;-78
2023/04/11 02:05:25;;;;;;;9.05;1.20;;;7.80;99.90;;;;;;5067732;28;20052;-81
2023/04/11 02:08:11;;;;;;;8.57;1.20;;;7.70;99.90;;;;;;5092003;28;20047;-79
2023/04/11 02:10:57;;;;;;;6.68;2.08;;;7.70;99.90;;;;;;5091166;28;20052;-79
2023/04/11 02:13:44;;;;;;;9.88;1.83;;;7.70;99.90;;;;;;5090483;28;20195;-78
2023/04/11 02:16:30;;;;;;;12.93;2.10;;;7.70;99.90;;;;;;5076815;28;20041;-79
2023/04/11 02:19:17;;;;;;;9.85;2.20;;;7.70;99.90;;;;;;5090814;28;20488;-78
2023/04/11 02:22:03;;;;;;;15.68;3.42;;;7.80;99.90;;;;;;5095413;28;20059;-78
2023/04/11 02:24:50;;;;;;;15.60;2.10;;;7.80;99.90;;;;;;5092192;28;20113;-79
2023/04/11 02:27:36;;;;;;;14.77;2.80;;;7.90;99.90;;;;;;5076150;28;20137;-77
2023/04/11 02:30:22;;;;;;;8.95;1.63;;;7.90;99.90;;;;;;5095301;28;20052;-80
2023/04/11 02:33:10;;;;;;;14.55;2.00;;;8.00;99.90;;;;;;5089928;28;20499;-78
2023/04/11 02:35:56;;;;;;;19.67;1.77;;;8.00;99.90;;;;;;5091220;28;20047;-80
2023/04/11 02:38:42;;;;;;;11.02;2.10;;;8.00;99.90;;;;;;5072263;28;20553;-77
2023/04/11 02:41:28;;;;;;;10.18;2.17;;;8.00;99.90;;;;;;5089987;28;20056;-81
2023/04/11 02:44:14;;;;;;;11.15;3.05;;;8.00;99.90;;;;;;5076691;28;20098;-81
2023/04/11 02:47:00;;;;;;;12.32;2.05;;;8.00;99.90;;;;;;5090382;28;20043;-78
2023/04/11 02:49:46;;;;;;;10.77;1.80;;;8.00;99.90;;;;;;5091152;28;20786;-81
2023/04/11 02:52:33;;;;;;;13.80;3.67;;;8.00;99.90;;;;;;5072869;28;20056;-78
2023/04/11 02:55:21;;;;;;;16.45;2.53;;;8.00;99.90;;;;;;5098881;28;20531;-82
2023/04/11 02:58:08;;;;;;;10.60;2.50;;;7.90;99.90;;;;;;5079025;28;20135;-80
2023/04/11 03:00:55;;;;;;;14.82;2.25;;;7.90;99.90;;;;;;5091770;28;20060;-80
2023/04/11 03:03:41;;;;;;;8.50;1.58;;;7.90;99.90;;;;;;5089648;28;20762;-82
2023/04/11 03:06:28;;;;;;;11.90;1.98;;;7.90;99.90;;;;;;5090158;28;20055;-81
2023/04/11 03:09:14;;;;;;;15.20;3.63;;;7.90;99.90;;;;;;5071148;28;20095;-81
2023/04/11 03:12:00;;;;;;;12.80;2.20;;;7.90;99.90;;;;;;5090396;28;20055;-80
2023/04/11 03:14:46;;;;;;;11.95;2.63;;;7.90;99.90;;;;;;5076038;28;20491;-80
2023/04/11 03:17:32;;;;;;;16.95;2.70;;;8.00;99.90;;;;;;5090612;28;20044;-79
2023/04/11 03:20:19;;;;;;;11.23;2.22;;;8.00;99.90;;;;;;5093313;28;20078;-81
2023/04/11 03:23:05;;;;;;;8.77;2.60;;;8.00;99.90;;;;;;5066602;28;20087;-80
2023/04/11 03:25:52;;;;;;;11.20;2.33;;;8.00;99.90;;;;;;5071304;28;20749;-81
2023/04/11 03:28:38;;;;;;;19.00;2.63;;;8.10;99.90;;;;;;5090234;28;20054;-79
2023/04/11 03:31:24;;;;;;;12.65;2.45;;;8.10;99.90;;;;;;5075429;28;20590;-80
2023/04/11 03:34:10;;;;;;;14.75;2.80;;;8.10;99.90;;;;;;5089371;28;20050;-79
2023/04/11 03:36:56;;;;;;;10.70;2.40;;;8.10;99.90;;;;;;5088976;28;20126;-80
2023/04/11 03:39:42;;;;;;;11.45;2.42;;;8.10;99.90;;;;;;5088766;28;20443;-79
2023/04/11 03:42:29;;;;;;;14.50;2.53;;;8.10;99.90;;;;;;5074856;28;20048;-79
2023/04/11 03:45:15;;;;;;;12.98;2.45;;;8.20;99.90;;;;;;5093168;28;20558;-79
2023/04/11 03:48:01;;;;;;;13.93;2.80;;;8.10;99.90;;;;;;5075025;28;20063;-80
2023/04/11 03:50:47;;;;;;;17.40;2.60;;;8.20;99.90;;;;;;5089730;28;20044;-80
2023/04/11 03:53:33;;;;;;;19.40;3.15;;;8.20;99.90;;;;;;5091068;28;20052;-79
2023/04/11 03:56:19;;;;;;;24.60;4.20;;;8.20;99.90;;;;;;5071022;28;20147;-79
2023/04/11 03:59:05;;;;;;;13.10;3.45;;;8.10;99.90;;;;;;5072141;28;20113;-81
2023/04/11 04:01:51;;;;;;;10.70;2.45;;;8.20;99.90;;;;;;5093742;28;20420;-82
2023/04/11 04:04:39;;;;;;;16.20;3.25;;;8.20;99.90;;;;;;5093558;28;20113;-81
2023/04/11 04:07:26;;;;;;;18.90;3.30;;;8.10;99.90;;;;;;5077485;28;20040;-78
2023/04/11 04:10:12;;;;;;;24.13;3.45;;;8.10;99.90;;;;;;5077596;28;20090;-81
2023/04/11 04:12:58;;;;;;;12.63;2.75;;;8.10;99.90;;;;;;5070298;28;20048;-80
2023/04/11 04:15:44;;;;;;;17.00;3.70;;;8.10;99.90;;;;;;5075209;28;20052;-79
2023/04/11 04:18:30;;;;;;;13.65;2.85;;;8.10;99.90;;;;;;5079475;28;20051;-79
2023/04/11 04:21:16;;;;;;;12.20;2.42;;;8.10;99.90;;;;;;5093125;28;20051;-82
2023/04/11 04:24:03;;;;;;;17.13;3.13;;;8.10;99.90;;;;;;5093551;28;20557;-80
2023/04/11 04:26:50;;;;;;;14.38;2.63;;;8.00;99.90;;;;;;5093810;28;20124;-79
2023/04/11 04:29:45;;;;;;;11.13;2.25;;;8.10;99.90;;;;;;5059990;28;20048;-79
2023/04/11 04:32:31;;;;;;;14.23;3.35;;;8.10;99.90;;;;;;5100098;28;20120;-82
2023/04/11 04:35:17;;;;;;;10.98;2.92;;;8.00;99.90;;;;;;5097376;28;20074;-79
2023/04/11 04:38:05;;;;;;;11.90;3.17;;;8.00;99.90;;;;;;5092991;28;20081;-79
2023/04/11 04:40:54;;;;;;;20.88;4.15;;;7.90;99.90;;;;;;5062457;28;20055;-77
2023/04/11 04:43:43;;;;;;;19.67;3.40;;;7.90;99.90;;;;;;5091948;28;20588;-82
2023/04/11 04:46:35;;;;;;;14.75;3.00;;;7.80;99.90;;;;;;5078790;28;20048;-81
2023/04/11 04:49:21;;;;;;;16.15;3.33;;;7.90;99.90;;;;;;5092316;28;20449;-79
2023/04/11 04:52:07;;;;;;;9.68;2.17;;;7.80;99.90;;;;;;5093280;28;20052;-81
2023/04/11 04:54:58;;;;;;;11.68;2.78;;;7.80;99.90;;;;;;5093061;28;20448;-81
2023/04/11 04:57:44;;;;;;;16.67;2.80;;;7.70;99.90;;;;;;5095418;28;20135;-80
2023/04/11 05:00:32;;;;;;;14.38;2.80;;;7.70;99.90;;;;;;5102312;28;20039;-80
2023/04/11 05:03:19;;;;;;;13.07;2.63;;;7.70;99.90;;;;;;5074704;28;20044;-81
2023/04/11 05:06:05;;;;;;;16.67;4.03;;;7.70;99.90;;;;;;5073734;28;20102;-80
2023/04/11 05:08:52;;;;;;;14.85;2.78;;;7.70;99.90;;;;;;5093129;28;20101;-78
2023/04/11 05:11:38;;;;;;;18.17;2.30;;;7.70;99.90;;;;;;5093873;28;20044;-79
2023/04/11 05:14:24;;;;;;;13.32;3.15;;;7.50;99.90;;;;;;5074885;28;20052;-80
2023/04/11 05:17:10;;;;;;;15.93;2.88;;;7.40;99.90;;;;;;5077648;28;20135;-78
2023/04/11 05:19:56;;;;;;;11.05;1.85;;;7.30;99.90;;;;;;5091884;28;20107;-80
2023/04/11 05:22:43;;;;;;;8.73;2.17;;;7.20;99.90;;;;;;5092281;28;20048;-79
2023/04/11 05:25:29;;;;;;;10.35;3.05;;;7.10;99.90;;;;;;5092750;28;20055;-77
2023/04/11 05:28:15;;;;;;;11.30;2.67;;;7.10;99.90;;;;;;5093269;28;20052;-77
2023/04/11 05:31:01;;;;;;;5.55;1.67;;;7.20;99.90;;;;;;5092831;28;20101;-78
2023/04/11 05:33:48;;;;;;;14.20;3.17;;;7.20;99.90;;;;;;5076544;28;20142;-76
2023/04/11 05:36:35;;;;;;;7.72;1.60;;;7.20;99.90;;;;;;5091243;28;20477;-77
2023/04/11 05:39:21;;;;;;;6.18;1.30;;;7.10;99.90;;;;;;5076936;28;20461;-83
2023/04/11 05:42:07;;;;;;;10.35;1.35;;;7.00;99.90;;;;;;5092031;28;20399;-78
2023/04/11 05:44:53;;;;;;;13.73;1.92;;;7.00;99.90;;;;;;5091565;28;20112;-80
2023/04/11 05:47:39;;;;;;;10.73;2.33;;;6.90;99.90;;;;;;5093030;28;20072;-78
2023/04/11 05:50:26;;;;;;;9.90;1.50;;;6.90;99.90;;;;;;5078169;28;20062;-82
2023/04/11 05:53:12;;;;;;;15.40;3.17;;;6.90;99.90;;;;;;5092922;28;20091;-82
2023/04/11 05:55:58;;;;;;;7.82;1.30;;;6.90;99.90;;;;;;5091692;28;20047;-76
2023/04/11 05:58:47;;;;;;;7.18;1.00;;;7.00;99.90;;;;;;5080743;28;20056;-78
2023/04/11 06:01:33;;;;;;;9.65;1.20;;;7.00;99.90;;;;;;5074236;28;20106;-80
2023/04/11 06:04:23;;;;;;;9.73;1.55;;;6.90;99.90;;;;;;5073261;28;20141;-76
2023/04/11 06:07:09;;;;;;;13.02;2.70;;;6.90;99.90;;;;;;5074328;28;20080;-77
2023/04/11 06:09:55;;;;;;;7.63;1.17;;;6.80;99.90;;;;;;5060935;28;20056;-81
2023/04/11 06:12:42;;;;;;;11.60;1.58;;;6.80;99.90;;;;;;5072669;28;20063;-80
2023/04/11 06:15:36;;;;;;;11.40;1.60;;;6.80;99.90;;;;;;5090853;28;20051;-78
2023/04/11 06:18:22;;;;;;;13.50;1.50;;;6.80;99.90;;;;;;5092040;28;20048;-79
2023/04/11 06:21:09;;;;;;;16.48;3.45;;;6.70;99.90;;;;;;5091669;28;20059;-82
2023/04/11 06:23:55;;;;;;;9.93;1.52;;;6.70;99.90;;;;;;5091607;28;20063;-79
2023/04/11 06:26:44;;;;;;;9.32;1.60;;;6.80;99.90;;;;;;5090824;28;20040;-81
2023/04/11 06:29:30;;;;;;;6.45;1.52;;;6.80;99.90;;;;;;5058735;28;20048;-86
2023/04/11 06:32:17;;;;;;;13.30;1.55;;;6.80;99.90;;;;;;5091646;28;20444;-81
2023/04/11 06:35:04;;;;;;;13.25;1.80;;;6.90;99.90;;;;;;5072387;28;20102;-84
2023/04/11 06:37:53;;;;;;;23.40;2.85;;;6.90;99.90;;;;;;5090834;28;20423;-77
2023/04/11 06:40:39;;;;;;;13.20;1.92;;;6.90;99.90;;;;;;5089507;28;20055;-80
2023/04/11 06:43:25;;;;;;;12.20;2.03;;;7.00;99.90;;;;;;5090256;28;20109;-82
2023/04/11 06:46:11;;;;;;;12.73;2.70;;;7.10;99.90;;;;;;5091000;28;20082;-79
2023/04/11 06:48:57;;;;;;;22.58;3.55;;;7.20;99.90;;;;;;5090591;28;20105;-79
2023/04/11 06:51:50;;;;;;;14.50;4.07;;;7.30;99.90;;;;;;5091686;28;20064;-80
2023/04/11 06:54:36;;;;;;;19.02;3.15;;;7.40;99.90;;;;;;5092207;28;20052;-79
2023/04/11 06:57:22;;;;;;;11.13;3.45;;;7.60;99.90;;;;;;5090306;28;20058;-78
2023/04/11 07:00:11;;;;;;;23.17;3.83;;;7.70;99.90;;;;;;5076294;28;20071;-79
2023/04/11 07:02:58;;;;;;;41.03;4.35;;;7.80;99.90;;;;;;5095470;28;20048;-80
2023/04/11 07:05:44;;;;;;;19.20;3.20;;;8.00;99.90;;;;;;5095160;28;20066;-74
2023/04/11 07:08:30;;;;;;;10.38;2.45;;;8.00;99.90;;;;;;5089755;28;20105;-78
2023/04/11 07:11:16;;;;;;;6.35;2.42;;;8.10;99.90;;;;;;5090791;28;20048;-78
2023/04/11 07:14:02;;;;;;;16.30;2.88;;;8.20;99.90;;;;;;5075779;28;20044;-77
2023/04/11 07:16:48;;;;;;;15.70;3.58;;;8.30;99.90;;;;;;5074999;28;20052;-78
2023/04/11 07:19:34;;;;;;;15.82;3.08;;;8.30;99.90;;;;;;5072427;28;20143;-78
2023/04/11 07:22:20;;;;;;;16.95;3.10;;;8.40;99.90;;;;;;5071312;28;20492;-80
2023/04/11 07:25:07;;;;;;;21.60;5.18;;;8.50;99.90;;;;;;5071574;28;20084;-79
2023/04/11 07:27:53;;;;;;;12.85;2.80;;;8.60;99.90;;;;;;5090394;28;20117;-81
2023/04/11 07:30:40;;;;;;;13.48;2.67;;;8.60;99.90;;;;;;5090188;28;20055;-79
2023/04/11 07:33:26;;;;;;;12.48;3.15;;;8.70;99.90;;;;;;5092647;28;20090;-78
2023/04/11 07:36:12;;;;;;;9.27;2.50;;;8.60;99.90;;;;;;5096440;28;20057;-84
2023/04/11 07:38:59;;;;;;;18.77;3.95;;;8.80;99.90;;;;;;5094550;28;20059;-79
2023/04/11 07:41:45;;;;;;;19.15;2.92;;;8.90;99.90;;;;;;5080790;28;20159;-75
2023/04/11 07:44:31;;;;;;;11.05;2.60;;;9.10;99.90;;;;;;5093820;28;20058;-79
2023/04/11 07:47:17;;;;;;;15.93;3.28;;;9.10;99.90;;;;;;5077082;28;20052;-80
2023/04/11 07:50:04;;;;;;;16.52;3.25;;;9.30;99.90;;;;;;5076707;28;20589;-82
2023/04/11 07:52:50;;;;;;;16.42;2.50;;;9.40;99.90;;;;;;5095590;28;20139;-82
2023/04/11 07:55:36;;;;;;;9.57;3.10;;;9.50;99.90;;;;;;5061636;28;20156;-80
2023/04/11 07:58:22;;;;;;;7.90;2.45;;;9.60;99.90;;;;;;5093350;28;20048;-80
2023/04/11 08:01:25;;;;;;;21.25;3.08;;;9.70;99.90;;;;;;5040997;28;20481;-79
2023/04/11 08:04:11;;;;;;;13.38;2.85;;;9.90;99.90;;;;;;5063171;28;20092;-78
2023/04/11 08:06:57;;;;;;;14.27;2.45;;;10.00;99.90;;;;;;5077377;28;20044;-78
2023/04/11 08:09:43;;;;;;;14.57;3.38;;;9.90;99.90;;;;;;5055242;28;20068;-76
2023/04/11 08:12:29;;;;;;;16.73;3.30;;;9.80;99.90;;;;;;5054935;28;20091;-80
2023/04/11 08:15:16;;;;;;;19.20;3.47;;;9.70;99.90;;;;;;5072409;28;20134;-81
2023/04/11 08:18:04;;;;;;;13.85;3.33;;;9.50;99.90;;;;;;5077786;28;20481;-81
2023/04/11 08:20:50;;;;;;;16.77;3.13;;;9.40;99.90;;;;;;5063820;28;20049;-84
2023/04/11 08:23:38;;;;;;;17.20;3.08;;;9.40;99.90;;;;;;5073329;28;20075;-80
2023/04/11 08:26:24;;;;;;;15.32;3.08;;;9.40;99.90;;;;;;5073972;28;20044;-82
2023/04/11 08:29:11;;;;;;;18.17;3.00;;;9.20;99.90;;;;;;5071399;28;20500;-80
2023/04/11 08:31:57;;;;;;;12.02;2.38;;;9.20;99.90;;;;;;5054027;28;20101;-78
2023/04/11 08:34:43;;;;;;;7.95;2.13;;;9.30;99.90;;;;;;5072695;28;20381;-79
2023/04/11 08:37:29;;;;;;;13.93;2.80;;;9.20;99.90;;;;;;5071644;28;20048;-81
2023/04/11 08:40:16;;;;;;;13.30;2.58;;;9.20;99.90;;;;;;5053665;28;20419;-77
2023/04/11 08:43:08;;;;;;;15.40;3.70;;;9.20;99.90;;;;;;5056994;28;20080;-77
2023/04/11 08:45:55;;;;;;;12.10;2.67;;;9.10;99.90;;;;;;5071271;28;20488;-78
2023/04/11 08:48:41;;;;;;;19.13;3.10;;;9.00;99.90;;;;;;5069922;28;20044;-79
2023/04/11 08:51:27;;;;;;;12.48;3.20;;;8.90;99.90;;;;;;5072614;28;20048;-77
2023/04/11 08:54:15;;;;;;;13.18;2.30;;;9.00;99.90;;;;;;5071592;28;20143;-81
2023/04/11 08:57:01;;;;;;;16.05;2.88;;;9.00;99.90;;;;;;5060368;28;20842;-77
2023/04/11 08:59:51;;;;;;;12.88;2.72;;;9.00;99.90;;;;;;5058802;28;20127;-80
2023/04/11 09:03:00;;;;;;;11.65;2.30;;;9.30;99.90;;;;;;5071862;28;20052;-82
2023/04/11 09:05:47;;;;;;;15.07;2.40;;;9.80;99.90;;;;;;5072302;28;20056;-82
2023/04/11 09:08:38;;;;;;;9.45;2.08;;;9.90;99.90;;;;;;5072517;28;20419;-80
2023/04/11 09:11:24;;;;;;;9.20;2.40;;;9.70;99.90;;;;;;5072285;28;20052;-79
2023/04/11 09:14:11;;;;;;;7.80;1.65;;;9.50;99.90;;;;;;5075966;28;20052;-84
2023/04/11 09:17:03;;;;;;;7.35;1.77;;;8.80;99.90;;;;;;5071108;28;20518;-83
2023/04/11 09:19:49;;;;;;;18.30;4.28;;;8.60;99.90;;;;;;5076868;28;20049;-82
2023/04/11 09:22:35;;;;;;;12.35;2.55;;;8.70;99.90;;;;;;5072755;28;20080;-82
2023/04/11 09:25:22;;;;;;;10.90;2.13;;;8.90;99.90;;;;;;5070680;28;20052;-78
2023/04/11 09:28:09;;;;;;;15.95;4.07;;;9.00;99.90;;;;;;5087032;28;20052;-80
2023/04/11 09:30:56;;;;;;;12.23;2.63;;;9.20;99.90;;;;;;5092909;28;20059;-78
2023/04/11 09:33:57;;;;;;;13.27;2.17;;;9.50;99.90;;;;;;5092668;28;20492;-82
2023/04/11 09:36:53;;;;;;;11.93;2.30;;;9.20;99.90;;;;;;5059302;28;20040;-86
2023/04/11 09:39:39;;;;;;;12.85;2.47;;;9.20;99.90;;;;;;5077811;28;20048;-81
2023/04/11 09:42:25;;;;;;;13.05;2.25;;;9.20;99.90;;;;;;5092665;28;20640;-78
2023/04/11 09:45:19;;;;;;;8.88;2.15;;;9.70;99.90;;;;;;5095348;28;20052;-78
2023/04/11 09:48:07;;;;;;;10.00;2.15;;;9.80;99.90;;;;;;5077254;28;20079;-84
2023/04/11 09:50:53;;;;;;;14.52;2.83;;;9.90;99.90;;;;;;5092686;28;20508;-79
2023/04/11 09:53:40;;;;;;;16.17;3.88;;;10.00;99.90;;;;;;5069474;28;20492;-78
2023/04/11 09:56:29;;;;;;;18.15;2.40;;;10.30;99.90;;;;;;5070399;28;20064;-78
2023/04/11 09:59:16;;;;;;;19.73;2.95;;;10.50;99.90;;;;;;5070395;28;20111;-80
2023/04/11 10:02:05;;;;;;;13.68;3.45;;;10.50;99.90;;;;;;5070673;28;20060;-79
2023/04/11 10:04:53;;;;;;;15.35;2.47;;;10.20;99.90;;;;;;5071683;28;20056;-82
2023/04/11 10:08:02;;;;;;;10.73;2.67;;;10.20;99.90;;;;;;5073972;28;20466;-83
2023/04/11 10:10:49;;;;;;;12.68;2.55;;;10.20;99.90;;;;;;5071903;28;20048;-79
2023/04/11 10:13:39;;;;;;;17.20;3.00;;;10.50;99.90;;;;;;5069920;28;20131;-78
2023/04/11 10:16:31;;;;;;;16.48;2.53;;;10.80;99.90;;;;;;5056998;28;20045;-81
2023/04/11 10:19:17;;;;;;;14.07;2.53;;;10.80;99.90;;;;;;5071814;28;20098;-80
2023/04/11 10:22:03;;;;;;;15.30;3.88;;;10.80;99.90;;;;;;5062544;28;20072;-79
2023/04/11 10:25:20;;;;;;;17.02;3.53;;;10.80;99.90;;;;;;5060260;28;20106;-79
2023/04/11 10:28:06;;;;;;;11.85;2.17;;;11.30;99.90;;;;;;5071678;28;20104;-78
2023/04/11 10:31:00;;;;;;;18.67;2.78;;;11.10;99.90;;;;;;5077577;28;20044;-83
2023/04/11 10:34:13;;;;;;;19.27;1.97;;;10.80;99.90;;;;;;5061944;28;20044;-81
2023/04/11 10:37:06;;;;;;;12.38;2.53;;;10.60;99.90;;;;;;5065391;28;20055;-78
2023/04/11 10:39:52;;;;;;;11.27;2.20;;;10.50;99.90;;;;;;5071928;28;20055;-79
2023/04/11 10:42:43;;;;;;;16.10;3.58;;;10.30;99.90;;;;;;5069473;28;20450;-79
2023/04/11 10:45:31;;;;;;;14.10;2.38;;;10.10;99.90;;;;;;5059688;28;20443;-81
2023/04/11 10:48:17;;;;;;;11.30;2.83;;;10.00;99.90;;;;;;5069316;28;20044;-81
2023/04/11 10:51:25;;;;;;;13.57;1.88;;;10.00;99.90;;;;;;5072192;28;20049;-79
2023/04/11 10:54:26;;;;;;;8.38;1.80;;;9.50;99.90;;;;;;5057609;28;20055;-79
2023/04/11 10:57:13;;;;;;;8.65;1.77;;;9.20;99.90;;;;;;5058690;28;20040;-80
2023/04/11 11:00:00;;;;;;;7.63;1.25;;;9.10;99.90;;;;;;5070059;28;20056;-85
2023/04/11 11:02:49;;;;;;;5.70;1.20;;;8.80;99.90;;;;;;5070100;28;20055;-85
2023/04/11 11:05:36;;;;;;;12.73;1.65;;;8.80;99.90;;;;;;5070612;28;20044;-82
2023/04/11 11:08:30;;;;;;;11.75;4.20;;;9.10;99.90;;;;;;5069842;28;20546;-79
2023/04/11 11:11:18;;;;;;;14.43;2.78;;;9.60;99.90;;;;;;5051789;28;20063;-76
2023/04/11 11:14:04;;;;;;;11.35;2.10;;;10.00;99.90;;;;;;5051518;28;20048;-80
2023/04/11 11:16:50;;;;;;;14.68;2.47;;;9.80;99.90;;;;;;5070860;28;20056;-77
2023/04/11 11:19:36;;;;;;;8.48;1.60;;;9.60;99.90;;;;;;5071923;28;20044;-77
2023/04/11 11:22:26;;;;;;;4.13;1.10;;;9.30;99.90;;;;;;5053612;28;20044;-77
2023/04/11 11:25:13;;;;;;;10.40;1.55;;;9.10;99.90;;;;;;5053609;28;20044;-77
2023/04/11 11:27:59;;;;;;;16.95;3.83;;;9.40;99.90;;;;;;5070620;28;20048;-79
2023/04/11 11:30:53;;;;;;;10.45;2.00;;;10.00;99.90;;;;;;5038446;28;20094;-83
2023/04/11 11:33:43;;;;;;;14.63;2.50;;;10.40;99.90;;;;;;5051197;28;20075;-81
2023/04/11 11:36:30;;;;;;;12.30;2.75;;;10.80;99.90;;;;;;5070022;28;20036;-77
2023/04/11 11:39:17;;;;;;;26.52;3.85;;;10.70;99.90;;;;;;5053114;28;20048;-81
2023/04/11 11:42:03;;;;;;;19.10;3.38;;;11.10;99.90;;;;;;5072186;28;20084;-83
2023/04/11 11:44:49;;;;;;;16.85;4.28;;;11.30;99.90;;;;;;5074469;28;20112;-79
2023/04/11 11:47:43;;;;;;;16.30;2.92;;;11.30;99.90;;;;;;5072247;28;20499;-81
2023/04/11 11:50:31;;;;;;;21.33;3.45;;;11.00;99.90;;;;;;5057660;28;20080;-78
2023/04/11 11:53:17;;;;;;;13.35;2.78;;;10.60;99.90;;;;;;5055225;28;20064;-79
2023/04/11 11:56:13;;;;;;;18.92;2.90;;;10.40;99.90;;;;;;5073399;28;20137;-80
2023/04/11 11:59:00;;;;;;;13.55;2.85;;;10.60;99.90;;;;;;5042338;28;20056;-78
2023/04/11 12:01:46;;;;;;;11.25;2.13;;;10.50;99.90;;;;;;5077782;28;20508;-76
2023/04/11 12:04:32;;;;;;;11.25;2.78;;;10.80;99.90;;;;;;5069203;28;20052;-78
2023/04/11 12:07:21;;;;;;;10.48;1.77;;;10.80;99.90;;;;;;5051954;28;20092;-78
2023/04/11 12:10:12;;;;;;;6.88;1.15;;;11.00;99.90;;;;;;5051627;28;20523;-80
2023/04/11 12:12:58;;;;;;;7.07;1.88;;;11.20;99.90;;;;;;5069370;28;20057;-80
2023/04/11 12:15:52;;;;;;;10.45;2.47;;;11.70;99.90;;;;;;5069123;28;20531;-77
2023/04/11 12:18:41;;;;;;;20.90;2.80;;;11.80;99.90;;;;;;5051082;28;20141;-79
2023/04/11 12:21:27;;;;;;;18.73;3.58;;;11.50;99.90;;;;;;5057161;28;20048;-79
2023/04/11 12:24:13;;;;;;;15.48;2.72;;;11.20;99.90;;;;;;5072747;28;20448;-80
2023/04/11 12:26:59;;;;;;;10.45;2.00;;;10.80;99.90;;;;;;5074307;28;20044;-78
2023/04/11 12:29:45;;;;;;;11.18;2.15;;;10.40;99.90;;;;;;5069887;28;20033;-81
2023/04/11 12:32:32;;;;;;;11.35;1.83;;;10.80;99.90;;;;;;5050431;28;20037;-82
2023/04/11 12:35:18;;;;;;;12.15;2.33;;;11.20;99.90;;;;;;5062572;28;20041;-78
2023/04/11 12:38:06;;;;;;;19.45;4.38;;;11.90;99.90;;;;;;5063802;28;20049;-82
2023/04/11 12:40:53;;;;;;;11.80;2.40;;;11.90;99.90;;;;;;5064006;28;20036;-82
2023/04/11 12:43:39;;;;;;;11.68;2.85;;;11.50;99.90;;;;;;5034530;28;20052;-81
2023/04/11 12:46:25;;;;;;;10.95;2.95;;;11.00;99.90;;;;;;5054809;28;20127;-82
2023/04/11 12:49:11;;;;;;;13.75;3.05;;;10.90;99.90;;;;;;5073562;28;20052;-84
2023/04/11 12:51:57;;;;;;;17.70;4.00;;;11.10;99.90;;;;;;5074292;28;20048;-79
2023/04/11 12:54:43;;;;;;;15.02;2.90;;;11.60;99.90;;;;;;5074253;28;20044;-80
2023/04/11 12:57:29;;;;;;;16.20;2.85;;;11.60;99.90;;;;;;5072796;28;20131;-79
2023/04/11 13:00:16;;;;;;;18.25;3.90;;;11.50;99.90;;;;;;5053755;28;20079;-80
2023/04/11 13:03:03;;;;;;;15.00;4.30;;;11.10;99.90;;;;;;5055509;28;20049;-81
2023/04/11 13:05:49;;;;;;;12.10;1.90;;;11.40;99.90;;;;;;5072017;28;20571;-80
2023/04/11 13:08:36;;;;;;;11.70;2.35;;;11.20;99.90;;;;;;5076370;28;20060;-83
2023/04/11 13:11:22;;;;;;;15.35;3.15;;;11.20;99.90;;;;;;5064271;28;20182;-84
2023/04/11 13:14:08;;;;;;;12.82;2.25;;;11.50;99.90;;;;;;5057445;28;20495;-84
2023/04/11 13:16:55;;;;;;;15.20;2.80;;;12.30;99.90;;;;;;5059535;28;20737;-82
2023/04/11 13:19:41;;;;;;;8.45;2.00;;;11.90;99.90;;;;;;5072430;28;20052;-83
2023/04/11 13:22:27;;;;;;;16.20;2.33;;;11.60;99.90;;;;;;5074105;28;20049;-84
2023/04/11 13:25:13;;;;;;;14.27;2.65;;;11.90;99.90;;;;;;5055287;28;20105;-83
2023/04/11 13:27:59;;;;;;;14.68;3.40;;;11.80;99.90;;;;;;5040927;28;20059;-82
2023/04/11 13:30:46;;;;;;;13.32;2.85;;;11.40;99.90;;;;;;5044444;28;20135;-81
2023/04/11 13:33:32;;;;;;;9.50;2.47;;;11.50;99.90;;;;;;5072717;28;20348;-82
2023/04/11 13:36:18;;;;;;;9.13;2.80;;;12.60;99.90;;;;;;5054862;28;20139;-81
2023/04/11 13:39:04;;;;;;;11.68;2.13;;;12.50;99.90;;;;;;5057359;28;20063;-80
2023/04/11 13:41:52;;;;;;;17.23;3.20;;;12.90;99.90;;;;;;5054912;28;20118;-81
2023/04/11 13:44:38;;;;;;;14.32;2.35;;;12.80;99.90;;;;;;5058638;28;20111;-79
2023/04/11 13:47:24;;;;;;;10.32;2.42;;;13.10;99.90;;;;;;5071220;28;20056;-79
2023/04/11 13:50:10;;;;;;;13.75;2.20;;;13.20;99.80;;;;;;5072549;28;20048;-81
2023/04/11 13:52:56;;;;;;;9.18;2.20;;;12.80;99.50;;;;;;5073168;28;20492;-81
2023/04/11 13:55:43;;;;;;;15.88;2.65;;;13.30;99.40;;;;;;5058158;28;20044;-82
2023/04/11 13:58:30;;;;;;;15.07;3.67;;;13.40;98.40;;;;;;5071976;28;20044;-81
2023/04/11 14:01:20;;;;;;;14.75;2.97;;;13.40;98.40;;;;;;5072496;28;20049;-82
2023/04/11 14:04:06;;;;;;;13.82;2.42;;;13.20;98.40;;;;;;5070637;28;20063;-82
2023/04/11 14:06:54;;;;;;;10.30;2.40;;;13.70;98.40;;;;;;5072040;28;20086;-80
2023/04/11 14:09:40;;;;;;;12.10;1.92;;;14.50;96.80;;;;;;5074235;28;20092;-80
2023/04/11 14:12:26;;;;;;;16.02;2.50;;;15.40;95.60;;;;;;5058626;28;20094;-80
2023/04/11 14:15:12;;;;;;;8.05;2.13;;;15.20;94.20;;;;;;5052485;28;20052;-80
2023/04/11 14:18:00;;;;;;;12.95;2.30;;;14.70;95.30;;;;;;5054830;28;20048;-78
2023/04/11 14:20:46;;;;;;;12.48;1.70;;;14.90;94.70;;;;;;5074354;28;20045;-80
2023/04/11 14:23:32;;;;;;;18.95;2.25;;;15.20;93.20;;;;;;5077978;28;20095;-80
2023/04/11 14:26:18;;;;;;;17.27;2.90;;;15.50;93.80;;;;;;5076814;28;20045;-78
2023/04/11 14:29:05;;;;;;;9.38;2.50;;;14.90;93.90;;;;;;5077090;28;20056;-76